createdAt,value
2022-10-20T00:02:14.425Z,102368.72
2022-10-20T00:04:41.101Z,102370.72
2022-10-20T00:07:07.577Z,102367.19
2022-10-20T00:09:34.103Z,102356.34
2022-10-20T00:12:00.579Z,102343.13
2022-10-20T00:14:27.087Z,102347.72
2022-10-20T00:16:53.632Z,102346.84
2022-10-20T00:19:20.269Z,102353.13
2022-10-20T00:21:46.740Z,102358.03
2022-10-20T00:24:13.266Z,102354.63
2022-10-20T00:26:39.736Z,102354.50
2022-10-20T00:29:06.326Z,102352.63
2022-10-20T00:31:33.082Z,102352.09
2022-10-20T00:33:59.721Z,102348.56
2022-10-20T00:36:26.244Z,102348.56
2022-10-20T00:38:58.098Z,102351.59
2022-10-20T00:41:24.645Z,102352.44
2022-10-20T00:43:54.989Z,102342.28
2022-10-20T00:46:24.867Z,102335.19
2022-10-20T00:48:58.217Z,102328.91
2022-10-20T00:51:28.868Z,102331.97
2022-10-20T00:54:09.356Z,102339.09
2022-10-20T00:56:39.925Z,102338.22
2022-10-20T00:59:06.679Z,102325.69
2022-10-20T01:01:33.518Z,102324.84
2022-10-20T01:04:01.477Z,102312.16
2022-10-20T01:06:28.320Z,102309.63
2022-10-20T01:08:54.974Z,102313.34
2022-10-20T01:11:50.985Z,102308.28
2022-10-20T01:14:26.257Z,102300.16
2022-10-20T01:17:25.703Z,102303.03
2022-10-20T01:20:20.294Z,102301.50
2022-10-20T01:23:13.274Z,102293.72
2022-10-20T01:26:24.472Z,102286.63
2022-10-20T01:28:58.235Z,102278.66
2022-10-20T01:31:35.086Z,102263.28
2022-10-20T01:34:25.156Z,102260.88
2022-10-20T01:36:56.117Z,102252.75
2022-10-20T01:39:29.961Z,102261.22
2022-10-20T01:42:01.299Z,102265.28
2022-10-20T01:44:30.581Z,102256.16
2022-10-20T01:46:59.058Z,102261.75
2022-10-20T01:49:26.423Z,102256.16
2022-10-20T01:51:53.579Z,102249.03
2022-10-20T01:54:25.737Z,102247.34
2022-10-20T01:57:02.112Z,102236.50
2022-10-20T01:59:57.840Z,102230.44
2022-10-20T02:02:49.359Z,102229.59
2022-10-20T02:05:23.974Z,102219.78
2022-10-20T02:07:50.801Z,102227.22
2022-10-20T02:10:49.566Z,102219.28
2022-10-20T02:13:18.529Z,102213.88
2022-10-20T02:15:50.993Z,102212.53
2022-10-20T02:18:22.610Z,102209.97
2022-10-20T02:20:52.263Z,102202.72
2022-10-20T02:23:19.078Z,102191.19
2022-10-20T02:25:49.734Z,102198.63
2022-10-20T02:28:17.833Z,102202.38
2022-10-20T02:30:45.675Z,102184.75
2022-10-20T02:33:13.054Z,102201.19
2022-10-20T02:35:43.884Z,102191.22
2022-10-20T02:38:10.409Z,102190.88
2022-10-20T02:40:36.888Z,102192.91
2022-10-20T02:43:03.401Z,102191.19
2022-10-20T02:45:29.864Z,102189.34
2022-10-20T02:47:56.669Z,102195.97
2022-10-20T02:50:23.150Z,102178.53
2022-10-20T02:52:49.665Z,102182.22
2022-10-20T02:55:16.266Z,102184.28
2022-10-20T02:57:42.762Z,102196.94
2022-10-20T03:00:09.970Z,102186.47
2022-10-20T03:02:36.546Z,102180.38
2022-10-20T03:05:03.489Z,102173.44
2022-10-20T03:07:30.140Z,102178.53
2022-10-20T03:09:56.731Z,102180.38
2022-10-20T03:12:23.285Z,102182.25
2022-10-20T03:14:49.854Z,102175.31
2022-10-20T03:17:16.361Z,102172.44
2022-10-20T03:19:42.943Z,102177.00
2022-10-20T03:22:09.431Z,102179.19
2022-10-20T03:24:35.984Z,102168.56
2022-10-20T03:27:02.502Z,102170.41
2022-10-20T03:29:29.009Z,102163.31
2022-10-20T03:31:55.523Z,102156.41
2022-10-20T03:34:22.122Z,102145.72
2022-10-20T03:36:48.671Z,102145.22
2022-10-20T03:39:15.229Z,102158.41
2022-10-20T03:41:41.740Z,102147.75
2022-10-20T03:44:10.169Z,102139.13
2022-10-20T03:46:37.092Z,102144.03
2022-10-20T03:49:04.148Z,102146.06
2022-10-20T03:51:30.618Z,102138.97
2022-10-20T03:53:57.124Z,102141.50
2022-10-20T03:56:23.920Z,102137.09
2022-10-20T03:58:50.795Z,102127.28
2022-10-20T04:01:21.397Z,102131.19
2022-10-20T04:03:47.953Z,102133.06
2022-10-20T04:06:15.897Z,102131.53
2022-10-20T04:08:42.586Z,102115.13
2022-10-20T04:11:09.399Z,102121.41
2022-10-20T04:13:35.966Z,102118.53
2022-10-20T04:16:02.472Z,102115.13
2022-10-20T04:18:29.065Z,102122.59
2022-10-20T04:20:55.546Z,102120.72
2022-10-20T04:23:22.093Z,102117.31
2022-10-20T04:25:48.853Z,102118.50
2022-10-20T04:28:17.308Z,102114.63
2022-10-20T04:30:44.500Z,102110.06
2022-10-20T04:33:12.010Z,102109.22
2022-10-20T04:35:39.134Z,102104.97
2022-10-20T04:38:06.123Z,102090.97
2022-10-20T04:40:33.015Z,102091.31
2022-10-20T04:43:01.101Z,102090.28
2022-10-20T04:45:28.249Z,102081.34
2022-10-20T04:47:54.951Z,102080.31
2022-10-20T04:50:21.647Z,102072.72
2022-10-20T04:52:48.112Z,102079.13
2022-10-20T04:55:14.677Z,102071.38
2022-10-20T04:57:41.254Z,102069.00
2022-10-20T05:00:08.327Z,102066.47
2022-10-20T05:02:34.798Z,102069.00
2022-10-20T05:05:01.325Z,102058.69
2022-10-20T05:07:30.432Z,102054.97
2022-10-20T05:09:56.924Z,102046.19
2022-10-20T05:12:23.738Z,102035.72
2022-10-20T05:14:50.250Z,102031.50
2022-10-20T05:17:16.728Z,102020.50
2022-10-20T05:19:43.237Z,102021.88
2022-10-20T05:22:09.774Z,102017.47
2022-10-20T05:24:36.299Z,102015.47
2022-10-20T05:27:02.928Z,102018.31
2022-10-20T05:29:29.579Z,102015.47
2022-10-20T05:31:56.087Z,102000.91
2022-10-20T05:34:22.637Z,101988.91
2022-10-20T05:36:49.166Z,101996.88
2022-10-20T05:39:15.790Z,101993.13
2022-10-20T05:41:42.282Z,101980.97
2022-10-20T05:44:11.339Z,101985.22
2022-10-20T05:46:41.141Z,101991.47
2022-10-20T05:49:11.072Z,101987.41
2022-10-20T05:51:37.668Z,101991.97
2022-10-20T05:54:04.385Z,101980.66
2022-10-20T05:56:32.059Z,101981.34
2022-10-20T05:58:58.762Z,101983.72
2022-10-20T06:01:49.709Z,101977.94
2022-10-20T06:04:25.050Z,101972.22
2022-10-20T06:06:52.700Z,101976.59
2022-10-20T06:09:21.369Z,101977.13
2022-10-20T06:11:48.227Z,101977.78
2022-10-20T06:14:15.311Z,101980.47
2022-10-20T06:16:41.858Z,101975.06
2022-10-20T06:19:08.419Z,101977.63
2022-10-20T06:21:36.323Z,101981.16
2022-10-20T06:24:04.909Z,101983.88
2022-10-20T06:26:33.524Z,101980.97
2022-10-20T06:29:04.752Z,101985.56
2022-10-20T06:31:40.912Z,101990.63
2022-10-20T06:34:14.524Z,101981.66
2022-10-20T06:36:46.481Z,101982.50
2022-10-20T06:39:23.775Z,101985.03
2022-10-20T06:41:53.446Z,101976.78
2022-10-20T06:44:22.299Z,101982.00
2022-10-20T06:46:49.842Z,101976.25
2022-10-20T06:49:16.367Z,101973.34
2022-10-20T06:51:42.911Z,101973.88
2022-10-20T06:54:09.513Z,101966.25
2022-10-20T06:56:37.043Z,101978.25
2022-10-20T06:59:07.268Z,101980.78
2022-10-20T07:01:46.933Z,101984.47
2022-10-20T07:04:15.393Z,101988.69
2022-10-20T07:06:44.741Z,101985.66
2022-10-20T07:09:17.648Z,101981.59
2022-10-20T07:11:44.589Z,101962.63
2022-10-20T07:14:13.591Z,101952.63
2022-10-20T07:16:40.238Z,101966.47
2022-10-20T07:19:07.026Z,101961.19
2022-10-20T07:21:36.560Z,101956.09
2022-10-20T07:24:06.649Z,101958.91
2022-10-20T07:26:35.962Z,101940.06
2022-10-20T07:29:03.841Z,101938.63
2022-10-20T07:31:33.649Z,101927.75
2022-10-20T07:34:12.969Z,101923.09
2022-10-20T07:36:42.571Z,101921.66
2022-10-20T07:39:11.119Z,101920.06
2022-10-20T07:41:39.572Z,101921.75
2022-10-20T07:44:07.042Z,101918.41
2022-10-20T07:46:33.543Z,101918.69
2022-10-20T07:49:23.824Z,101916.91
2022-10-20T07:51:46.587Z,101916.19
2022-10-20T07:54:13.120Z,101906.09
2022-10-20T07:56:41.873Z,101895.44
2022-10-20T07:59:10.191Z,101893.47
2022-10-20T08:01:37.228Z,101888.81
2022-10-20T08:04:04.038Z,101882.25
2022-10-20T08:06:30.913Z,101882.72
2022-10-20T08:08:57.560Z,101878.28
2022-10-20T08:11:24.568Z,101875.06
2022-10-20T08:13:51.152Z,101873.00
2022-10-20T08:16:27.247Z,101870.56
2022-10-20T08:21:22.841Z,101848.53
2022-10-20T08:23:49.900Z,101835.66
2022-10-20T08:26:26.181Z,101835.34
2022-10-20T08:28:54.702Z,101832.88
2022-10-20T08:31:22.040Z,101814.97
2022-10-20T08:33:52.309Z,101811.66
2022-10-20T08:36:20.424Z,101796.66
2022-10-20T08:38:46.964Z,101805.91
2022-10-20T08:41:22.748Z,101804.47
2022-10-20T08:43:52.484Z,101801.34
2022-10-20T08:46:20.726Z,101810.78
2022-10-20T08:48:48.261Z,101818.34
2022-10-20T08:51:27.758Z,101801.06
2022-10-20T08:53:57.368Z,101801.28
2022-10-20T08:56:26.055Z,101794.41
2022-10-20T08:58:52.956Z,101789.88
2022-10-20T09:01:33.354Z,101785.50
2022-10-20T09:04:20.071Z,101789.09
2022-10-20T09:06:51.985Z,101793.09
2022-10-20T09:09:21.331Z,101788.56
2022-10-20T09:11:48.551Z,101787.09
2022-10-20T09:14:16.709Z,101774.97
2022-10-20T09:16:59.880Z,101768.50
2022-10-20T09:19:28.486Z,101765.19
2022-10-20T09:21:58.113Z,101761.22
2022-10-20T09:24:30.053Z,101755.81
2022-10-20T09:27:15.869Z,101754.97
2022-10-20T09:29:42.417Z,101752.53
2022-10-20T09:32:46.002Z,101744.59
2022-10-20T09:35:33.020Z,101750.88
2022-10-20T09:38:09.793Z,101764.28
2022-10-20T09:40:43.295Z,101761.97
2022-10-20T09:43:15.396Z,101768.50
2022-10-20T09:45:52.784Z,101775.63
2022-10-20T09:48:29.150Z,101776.91
2022-10-20T09:50:57.421Z,101778.59
2022-10-20T09:53:32.474Z,101768.72
2022-10-20T09:55:59.780Z,101766.88
2022-10-20T09:58:38.490Z,101767.91
2022-10-20T10:01:13.123Z,101753.66
2022-10-20T10:03:44.967Z,101749.28
2022-10-20T10:06:37.988Z,101756.56
2022-10-20T10:09:26.492Z,101757.63
2022-10-20T10:12:12.247Z,101748.41
2022-10-20T10:14:51.213Z,101727.84
2022-10-20T10:17:39.976Z,101718.19
2022-10-20T10:20:12.503Z,101711.44
2022-10-20T10:22:40.345Z,101704.31
2022-10-20T10:25:14.972Z,101700.72
2022-10-20T10:27:58.314Z,101692.50
2022-10-20T10:30:27.769Z,101701.69
2022-10-20T10:32:55.214Z,101710.25
2022-10-20T10:35:26.886Z,101697.47
2022-10-20T10:37:54.487Z,101693.28
2022-10-20T10:40:37.693Z,101685.91
2022-10-20T10:43:31.943Z,101679.19
2022-10-20T10:46:01.254Z,101683.19
2022-10-20T10:48:27.667Z,101673.97
2022-10-20T10:50:58.888Z,101672.06
2022-10-20T10:53:42.364Z,101665.16
2022-10-20T10:56:24.004Z,101656.31
2022-10-20T10:59:09.087Z,101644.13
2022-10-20T11:01:47.462Z,101634.84
2022-10-20T11:04:25.841Z,101626.34
2022-10-20T11:07:01.271Z,101616.59
2022-10-20T11:09:58.876Z,101610.66
2022-10-20T11:12:34.135Z,101609.31
2022-10-20T11:15:15.617Z,101616.84
2022-10-20T11:17:57.350Z,101599.78
2022-10-20T11:20:39.770Z,101598.66
2022-10-20T11:23:27.337Z,101584.91
2022-10-20T11:26:00.096Z,101591.00
2022-10-20T11:28:45.869Z,101592.13
2022-10-20T11:31:42.321Z,101577.97
2022-10-20T11:34:50.260Z,101579.09
2022-10-20T11:37:22.677Z,101588.06
2022-10-20T11:39:57.335Z,101590.81
2022-10-20T11:42:32.530Z,101599.06
2022-10-20T11:45:01.319Z,101603.16
2022-10-20T11:47:36.242Z,101598.06
2022-10-20T11:50:09.727Z,101592.69
2022-10-20T11:53:01.015Z,101578.09
2022-10-20T11:55:46.228Z,101566.81
2022-10-20T11:58:32.092Z,101562.91
2022-10-20T12:01:23.260Z,101558.34
2022-10-20T12:04:13.847Z,101542.53
2022-10-20T12:07:18.032Z,101537.81
2022-10-20T12:10:02.584Z,101522.34
2022-10-20T12:12:53.677Z,101507.56
2022-10-20T12:15:25.213Z,101504.41
2022-10-20T12:17:54.009Z,101499.31
2022-10-20T12:20:20.460Z,101486.44
2022-10-20T12:22:50.562Z,101463.50
2022-10-20T12:25:26.540Z,101462.38
2022-10-20T12:28:22.486Z,101466.84
2022-10-20T12:30:59.352Z,101463.66
2022-10-20T12:33:50.780Z,101460.56
2022-10-20T12:36:17.347Z,101456.34
2022-10-20T12:38:49.192Z,101449.09
2022-10-20T12:41:30.377Z,101443.84
2022-10-20T12:44:21.215Z,101434.94
2022-10-20T12:47:19.805Z,101436.97
2022-10-20T12:49:59.035Z,101434.88
2022-10-20T12:52:32.547Z,101440.22
2022-10-20T12:55:18.540Z,101438.44
2022-10-20T12:57:46.446Z,101422.41
2022-10-20T13:00:19.059Z,101429.06
2022-10-20T13:02:50.897Z,101431.09
2022-10-20T13:05:17.347Z,101428.13
2022-10-20T13:07:47.020Z,101426.81
2022-10-20T13:10:38.726Z,101424.69
2022-10-20T13:13:05.188Z,101411.25
2022-10-20T13:15:35.578Z,101414.00
2022-10-20T13:18:04.210Z,101400.31
2022-10-20T13:21:14.873Z,101397.31
2022-10-20T13:23:45.527Z,101398.63
2022-10-20T13:26:23.291Z,101391.50
2022-10-20T13:28:52.850Z,101383.53
2022-10-20T13:32:03.738Z,101384.34
2022-10-20T13:34:55.600Z,101382.47
2022-10-20T13:37:28.421Z,101391.50
2022-10-20T13:40:31.080Z,101385.78
2022-10-20T13:43:03.580Z,101389.81
2022-10-20T13:45:57.865Z,101382.09
2022-10-20T13:48:40.784Z,101376.88
2022-10-20T13:51:21.329Z,101361.03
2022-10-20T13:53:52.539Z,101358.28
2022-10-20T13:56:31.739Z,101358.78
2022-10-20T13:59:06.945Z,101353.75
2022-10-20T14:01:36.200Z,101360.66
2022-10-20T14:04:02.820Z,101349.13
2022-10-20T14:06:29.291Z,101343.91
2022-10-20T14:08:58.019Z,101348.53
2022-10-20T14:11:30.767Z,101335.34
2022-10-20T14:13:59.677Z,101339.97
2022-10-20T14:16:28.902Z,101352.00
2022-10-20T14:19:09.177Z,101347.34
2022-10-20T14:21:42.641Z,101347.22
2022-10-20T14:24:16.597Z,101353.75
2022-10-20T14:26:44.317Z,101353.41
2022-10-20T14:29:16.206Z,101358.53
2022-10-20T14:31:44.274Z,101344.69
2022-10-20T14:34:22.790Z,101341.59
2022-10-20T14:36:51.126Z,101339.09
2022-10-20T14:39:30.363Z,101341.59
2022-10-20T14:42:00.883Z,101344.19
2022-10-20T14:44:31.744Z,101357.25
2022-10-20T14:47:05.272Z,101353.91
2022-10-20T14:49:39.296Z,101356.63
2022-10-20T14:52:22.059Z,101350.31
2022-10-20T14:54:50.641Z,101340.44
2022-10-20T14:57:17.094Z,101330.44
2022-10-20T15:00:02.786Z,101330.94
2022-10-20T15:02:32.561Z,101335.19
2022-10-20T15:05:31.184Z,101333.38
2022-10-20T15:07:58.434Z,101333.00
2022-10-20T15:10:26.789Z,101334.31
2022-10-20T15:12:56.536Z,101338.34
2022-10-20T15:15:29.208Z,101351.41
2022-10-20T15:18:04.711Z,101335.94
2022-10-20T15:20:33.981Z,101334.28
2022-10-20T15:23:11.301Z,101339.38
2022-10-20T15:25:46.942Z,101339.84
2022-10-20T15:28:21.398Z,101323.06
2022-10-20T15:30:48.165Z,101324.81
2022-10-20T15:33:14.756Z,101339.56
2022-10-20T15:35:45.229Z,101335.38
2022-10-20T15:38:11.756Z,101334.78
2022-10-20T15:40:38.365Z,101339.41
2022-10-20T15:43:05.415Z,101335.00
2022-10-20T15:45:37.502Z,101328.94
2022-10-20T15:48:04.227Z,101330.47
2022-10-20T15:50:30.973Z,101331.75
2022-10-20T15:52:57.496Z,101338.50
2022-10-20T15:55:31.385Z,101339.78
2022-10-20T15:57:58.327Z,101339.41
2022-10-20T16:00:27.425Z,101340.47
2022-10-20T16:02:54.155Z,101341.56
2022-10-20T16:05:26.167Z,101342.84
2022-10-20T16:07:54.267Z,101329.41
2022-10-20T16:10:28.576Z,101334.84
2022-10-20T16:12:55.587Z,101335.72
2022-10-20T16:15:22.368Z,101340.56
2022-10-20T16:20:20.304Z,101349.59
2022-10-20T16:22:46.902Z,101342.47
2022-10-20T16:25:13.545Z,101333.66
2022-10-20T16:27:40.323Z,101331.97
2022-10-20T16:30:08.160Z,101324.41
2022-10-20T16:32:35.448Z,101328.97
2022-10-20T16:35:04.288Z,101324.22
2022-10-20T16:37:32.741Z,101313.75
2022-10-20T16:39:59.922Z,101321.63
2022-10-20T16:42:28.334Z,101316.91
2022-10-20T16:44:54.836Z,101306.97
2022-10-20T16:47:21.445Z,101298.53
2022-10-20T16:49:47.985Z,101304.94
2022-10-20T16:52:14.523Z,101302.59
2022-10-20T16:57:13.307Z,101294.91
2022-10-20T16:59:39.867Z,101299.31
2022-10-20T17:02:06.525Z,101287.31
2022-10-20T17:04:33.640Z,101285.41
2022-10-20T17:07:00.200Z,101271.38
2022-10-20T17:09:27.027Z,101286.09
2022-10-20T17:11:53.543Z,101267.69
2022-10-20T17:14:20.118Z,101267.44
2022-10-20T17:16:47.399Z,101265.78
2022-10-20T17:19:14.041Z,101273.16
2022-10-20T17:21:40.571Z,101264.72
2022-10-20T17:24:11.479Z,101262.59
2022-10-20T17:26:39.841Z,101244.63
2022-10-20T17:29:08.577Z,101251.72
2022-10-20T17:31:37.115Z,101245.44
2022-10-20T17:34:05.296Z,101244.63
2022-10-20T17:36:32.268Z,101241.78
2022-10-20T17:39:01.768Z,101232.13
2022-10-20T17:41:28.611Z,101226.69
2022-10-20T17:43:55.230Z,101229.63
2022-10-20T17:46:21.973Z,101225.25
2022-10-20T17:48:48.443Z,101218.94
2022-10-20T17:51:21.361Z,101219.16
2022-10-20T17:53:50.110Z,101210.50
2022-10-20T17:56:19.915Z,101213.09
2022-10-20T17:58:49.245Z,101205.38
2022-10-20T18:01:18.105Z,101208.13
2022-10-20T18:03:46.787Z,101202.28
2022-10-20T18:06:19.285Z,101199.66
2022-10-20T18:08:46.124Z,101206.78
2022-10-20T18:11:18.922Z,101212.25
2022-10-20T18:13:45.968Z,101202.88
2022-10-20T18:16:15.551Z,101193.44
2022-10-20T18:18:42.287Z,101207.81
2022-10-20T18:21:11.292Z,101200.59
2022-10-20T18:23:38.446Z,101199.41
2022-10-20T18:26:13.773Z,101206.38
2022-10-20T18:28:43.163Z,101206.97
2022-10-20T18:31:17.678Z,101197.72
2022-10-20T18:33:44.887Z,101203.19
2022-10-20T18:36:13.690Z,101194.41
2022-10-20T18:38:42.160Z,101200.06
2022-10-20T18:41:20.242Z,101192.13
2022-10-20T18:43:47.055Z,101187.97
2022-10-20T18:46:14.911Z,101180.63
2022-10-20T18:48:41.887Z,101185.47
2022-10-20T18:51:10.454Z,101166.00
2022-10-20T18:53:38.328Z,101145.44
2022-10-20T18:56:08.354Z,101144.38
2022-10-20T18:58:38.339Z,101136.69
2022-10-20T19:01:10.049Z,101142.13
2022-10-20T19:03:37.087Z,101135.00
2022-10-20T19:06:09.734Z,101145.06
2022-10-20T19:08:38.158Z,101151.84
2022-10-20T19:11:07.302Z,101150.63
2022-10-20T19:13:34.166Z,101162.63
2022-10-20T19:16:06.042Z,101156.56
2022-10-20T19:18:32.671Z,101148.97
2022-10-20T19:21:02.096Z,101146.03
2022-10-20T19:23:31.143Z,101150.41
2022-10-20T19:26:22.520Z,101146.25
2022-10-20T19:28:58.857Z,101140.78
2022-10-20T19:31:41.805Z,101128.44
2022-10-20T19:34:18.254Z,101124.38
2022-10-20T19:36:48.405Z,101126.50
2022-10-20T19:39:21.700Z,101122.69
2022-10-20T19:41:48.680Z,101131.13
2022-10-20T19:44:15.679Z,101137.63
2022-10-20T19:46:44.306Z,101132.78
2022-10-20T19:49:11.667Z,101124.00
2022-10-20T19:51:38.707Z,101130.75
2022-10-20T19:54:06.200Z,101121.50
2022-10-20T19:56:34.193Z,101122.31
2022-10-20T19:59:02.598Z,101114.63
2022-10-20T20:01:29.591Z,101109.59
2022-10-20T20:03:56.460Z,101093.44
2022-10-20T20:06:23.339Z,101098.91
2022-10-20T20:08:53.799Z,101092.50
2022-10-20T20:11:23.913Z,101084.53
2022-10-20T20:13:53.500Z,101080.25
2022-10-20T20:16:20.912Z,101087.13
2022-10-20T20:18:48.239Z,101086.06
2022-10-20T20:21:15.611Z,101083.34
2022-10-20T20:23:58.280Z,101080.25
2022-10-20T20:26:25.807Z,101084.66
2022-10-20T20:28:54.222Z,101082.97
2022-10-20T20:31:21.625Z,101090.53
2022-10-20T20:33:48.298Z,101088.06
2022-10-20T20:36:14.897Z,101080.25
2022-10-20T20:38:42.052Z,101082.72
2022-10-20T20:41:13.672Z,101068.03
2022-10-20T20:43:45.473Z,101072.88
2022-10-20T20:46:16.775Z,101082.72
2022-10-20T20:48:44.037Z,101088.19
2022-10-20T20:51:11.515Z,101081.69
2022-10-20T20:53:39.624Z,101073.25
2022-10-20T20:56:09.706Z,101064.25
2022-10-20T20:58:36.675Z,101065.91
2022-10-20T21:01:19.067Z,101059.00
2022-10-20T21:03:46.677Z,101061.72
2022-10-20T21:06:16.111Z,101068.28
2022-10-20T21:08:45.463Z,101061.72
2022-10-20T21:11:21.917Z,101063.25
2022-10-20T21:13:49.972Z,101067.66
2022-10-20T21:16:19.967Z,101060.09
2022-10-20T21:18:49.428Z,101050.81
2022-10-20T21:21:19.750Z,101052.97
2022-10-20T21:23:46.332Z,101061.16
2022-10-20T21:26:15.606Z,101069.34
2022-10-20T21:28:42.769Z,101057.56
2022-10-20T21:31:12.033Z,101050.25
2022-10-20T21:33:39.120Z,101064.94
2022-10-20T21:36:13.534Z,101055.09
2022-10-20T21:38:41.092Z,101061.00
2022-10-20T21:41:10.943Z,101059.34
2022-10-20T21:43:40.301Z,101045.09
2022-10-20T21:46:31.610Z,101054.38
2022-10-20T21:49:01.314Z,101038.81
2022-10-20T21:51:30.999Z,101040.94
2022-10-20T21:53:59.828Z,101041.78
2022-10-20T21:56:26.728Z,101027.53
2022-10-20T21:58:54.045Z,101031.31
2022-10-20T22:01:23.061Z,101027.41
2022-10-20T22:03:51.406Z,101029.56
2022-10-20T22:06:19.947Z,101032.47
2022-10-20T22:08:49.101Z,101031.66
2022-10-20T22:11:19.127Z,101024.78
2022-10-20T22:13:47.191Z,101026.06
2022-10-20T22:16:16.861Z,101028.78
2022-10-20T22:18:43.535Z,101032.81
2022-10-20T22:21:13.703Z,101033.63
2022-10-20T22:23:40.946Z,101028.41
2022-10-20T22:26:07.732Z,101042.28
2022-10-20T22:28:34.397Z,101045.47
2022-10-20T22:33:33.236Z,101037.97
2022-10-20T22:35:59.755Z,101040.31
2022-10-20T22:38:26.287Z,101037.03
2022-10-20T22:40:52.767Z,101033.06
2022-10-20T22:43:19.271Z,101038.97
2022-10-20T22:45:45.750Z,101037.53
2022-10-20T22:48:12.325Z,101036.13
2022-10-20T22:50:38.797Z,101030.28
2022-10-20T22:53:05.304Z,101044.13
2022-10-20T22:55:31.771Z,101048.75
2022-10-20T23:00:29.994Z,101046.94
2022-10-20T23:02:56.777Z,101049.91
2022-10-20T23:05:23.333Z,101044.31
2022-10-20T23:07:49.906Z,101052.09
2022-10-20T23:10:16.578Z,101056.09
2022-10-20T23:12:43.074Z,101057.38
2022-10-20T23:15:10.088Z,101040.66
2022-10-20T23:17:37.772Z,101040.88
2022-10-20T23:20:04.775Z,101034.25
2022-10-20T23:22:31.260Z,101043.06
2022-10-20T23:24:57.766Z,101042.44
2022-10-20T23:27:24.284Z,101037.47
2022-10-20T23:29:50.780Z,101043.38
2022-10-20T23:32:17.253Z,101043.81
2022-10-20T23:34:43.792Z,101040.50
2022-10-20T23:37:10.296Z,101040.94
2022-10-20T23:39:36.823Z,101031.09
2022-10-20T23:42:06.377Z,101028.38
2022-10-20T23:44:33.883Z,101031.53
2022-10-20T23:47:00.392Z,101038.91
2022-10-20T23:49:26.892Z,101043.50
2022-10-20T23:51:53.364Z,101035.56
2022-10-20T23:54:19.872Z,101036.84
2022-10-20T23:56:46.479Z,101038.75
2022-10-20T23:59:13.028Z,101035.16
